createdAt,value
2018-09-25T00:00:02.382Z,99.90
2018-09-25T00:02:39.157Z,99.90
2018-09-25T00:05:15.894Z,99.90
2018-09-25T00:07:52.851Z,99.90
2018-09-25T00:10:30.433Z,99.90
2018-09-25T00:13:07.710Z,99.90
2018-09-25T00:15:45.080Z,99.90
2018-09-25T00:18:21.988Z,99.90
2018-09-25T00:20:59.003Z,99.90
2018-09-25T00:23:36.301Z,99.90
2018-09-25T00:26:14.261Z,99.90
2018-09-25T00:28:51.682Z,99.90
2018-09-25T00:31:28.723Z,99.90
2018-09-25T00:34:06.909Z,99.90
2018-09-25T00:36:44.157Z,99.90
2018-09-25T00:39:21.397Z,99.90
2018-09-25T00:41:59.168Z,99.90
2018-09-25T00:44:37.146Z,99.90
2018-09-25T00:47:16.550Z,99.90
2018-09-25T00:49:56.827Z,99.90
2018-09-25T00:52:34.356Z,99.90
2018-09-25T00:55:11.752Z,99.90
2018-09-25T00:57:50.196Z,99.90
2018-09-25T01:00:27.056Z,99.90
2018-09-25T01:03:07.887Z,99.90
2018-09-25T01:05:44.333Z,99.90
2018-09-25T01:08:21.750Z,99.90
2018-09-25T01:11:00.034Z,99.90
2018-09-25T01:13:40.210Z,99.90
2018-09-25T01:16:18.104Z,99.90
2018-09-25T01:18:56.113Z,99.90
2018-09-25T01:21:36.827Z,99.90
2018-09-25T01:24:16.100Z,99.90
2018-09-25T01:26:53.069Z,99.90
2018-09-25T01:29:29.616Z,99.90
2018-09-25T01:32:06.537Z,99.90
2018-09-25T01:34:44.342Z,99.90
2018-09-25T01:37:23.288Z,99.90
2018-09-25T01:40:04.018Z,99.90
2018-09-25T01:42:40.942Z,99.90
2018-09-25T01:45:19.922Z,99.90
2018-09-25T01:47:56.658Z,99.90
2018-09-25T01:50:34.716Z,99.90
2018-09-25T01:53:11.558Z,99.90
2018-09-25T01:56:21.145Z,99.90
2018-09-25T01:59:01.763Z,99.90
2018-09-25T02:01:39.842Z,99.90
2018-09-25T02:04:17.442Z,99.90
2018-09-25T02:06:55.144Z,99.90
2018-09-25T02:09:32.794Z,99.90
2018-09-25T02:12:11.148Z,99.90
2018-09-25T02:14:48.941Z,99.90
2018-09-25T02:17:27.880Z,99.90
2018-09-25T02:20:05.634Z,99.90
2018-09-25T02:22:43.850Z,99.90
2018-09-25T02:25:22.948Z,99.90
2018-09-25T02:28:02.542Z,99.90
2018-09-25T02:30:41.791Z,99.90
2018-09-25T02:33:19.848Z,99.90
2018-09-25T02:35:57.598Z,99.90
2018-09-25T02:38:35.524Z,99.90
2018-09-25T02:41:13.145Z,99.90
2018-09-25T02:43:50.685Z,99.90
2018-09-25T02:46:28.765Z,99.90
2018-09-25T02:49:06.345Z,99.90
2018-09-25T02:51:47.480Z,99.90
2018-09-25T02:54:25.549Z,99.90
2018-09-25T02:57:03.064Z,99.90
2018-09-25T02:59:40.556Z,99.90
2018-09-25T03:02:19.596Z,99.90
2018-09-25T03:04:56.961Z,99.90
2018-09-25T03:07:34.808Z,99.90
2018-09-25T03:10:12.411Z,99.90
2018-09-25T03:12:50.275Z,99.90
2018-09-25T03:15:28.991Z,99.90
2018-09-25T03:18:16.525Z,99.90
2018-09-25T03:20:55.860Z,99.90
2018-09-25T03:23:34.092Z,99.90
2018-09-25T03:29:33.039Z,99.90
2018-09-25T03:32:10.881Z,99.90
2018-09-25T03:34:48.098Z,99.90
2018-09-25T03:37:25.240Z,99.90
2018-09-25T03:40:02.079Z,99.90
2018-09-25T03:42:39.289Z,99.90
2018-09-25T03:45:16.561Z,99.90
2018-09-25T03:47:53.258Z,99.90
2018-09-25T03:50:30.146Z,99.90
2018-09-25T03:53:07.393Z,99.90
2018-09-25T03:55:44.552Z,99.90
2018-09-25T03:58:21.266Z,99.90
2018-09-25T04:01:00.565Z,99.90
2018-09-25T04:03:37.463Z,99.90
2018-09-25T04:06:15.100Z,99.90
2018-09-25T04:08:52.086Z,99.90
2018-09-25T04:11:30.507Z,99.90
2018-09-25T04:14:11.150Z,99.90
2018-09-25T04:16:50.557Z,99.90
2018-09-25T04:19:29.829Z,99.90
2018-09-25T04:22:07.014Z,99.90
2018-09-25T04:24:45.257Z,99.90
2018-09-25T04:27:22.653Z,99.90
2018-09-25T04:29:59.629Z,99.90
2018-09-25T04:32:36.589Z,99.90
2018-09-25T04:35:14.131Z,99.90
2018-09-25T04:37:51.060Z,99.90
2018-09-25T04:40:28.221Z,99.90
2018-09-25T04:43:05.534Z,99.90
2018-09-25T04:45:44.014Z,99.90
2018-09-25T04:48:24.829Z,99.90
2018-09-25T04:51:02.106Z,99.90
2018-09-25T04:53:40.576Z,99.90
2018-09-25T04:56:17.793Z,99.90
2018-09-25T04:58:55.218Z,99.90
2018-09-25T05:01:36.178Z,99.90
2018-09-25T05:04:13.525Z,99.90
2018-09-25T05:06:50.670Z,99.90
2018-09-25T05:09:29.466Z,99.90
2018-09-25T05:12:09.840Z,99.90
2018-09-25T05:14:49.294Z,99.90
2018-09-25T05:17:33.272Z,99.90
2018-09-25T05:20:12.518Z,99.90
2018-09-25T05:22:53.424Z,99.90
2018-09-25T05:25:31.477Z,99.90
2018-09-25T05:31:37.084Z,99.90
2018-09-25T05:34:14.331Z,99.90
2018-09-25T05:36:51.407Z,99.90
2018-09-25T05:39:29.554Z,99.90
2018-09-25T05:42:06.945Z,99.90
2018-09-25T05:44:44.228Z,99.90
2018-09-25T05:47:21.620Z,99.90
2018-09-25T05:53:20.088Z,99.90
2018-09-25T05:59:17.654Z,99.90
2018-09-25T06:01:54.807Z,99.90
2018-09-25T06:04:31.906Z,99.90
2018-09-25T06:07:09.246Z,99.90
2018-09-25T06:09:46.413Z,99.90
2018-09-25T06:12:23.398Z,99.90
2018-09-25T06:18:32.399Z,99.90
2018-09-25T06:21:09.789Z,99.90
2018-09-25T06:23:47.412Z,99.90
2018-09-25T06:26:25.876Z,99.90
2018-09-25T06:29:03.436Z,99.90
2018-09-25T06:31:41.445Z,99.90
2018-09-25T06:34:19.676Z,99.90
2018-09-25T06:36:58.674Z,99.90
2018-09-25T06:39:37.358Z,99.90
2018-09-25T06:42:14.976Z,99.90
2018-09-25T06:44:52.773Z,99.90
2018-09-25T06:47:30.502Z,99.90
2018-09-25T06:50:07.880Z,99.90
2018-09-25T06:52:45.585Z,99.90
2018-09-25T06:55:23.067Z,99.90
2018-09-25T06:58:01.277Z,99.90
2018-09-25T07:00:38.594Z,99.90
2018-09-25T07:03:16.227Z,99.90
2018-09-25T07:05:53.763Z,99.90
2018-09-25T07:08:31.888Z,99.90
2018-09-25T07:11:09.521Z,99.90
2018-09-25T07:13:47.091Z,99.90
2018-09-25T07:16:24.763Z,99.90
2018-09-25T07:19:02.342Z,99.90
2018-09-25T07:21:39.837Z,99.90
2018-09-25T07:24:17.753Z,99.90
2018-09-25T07:26:55.124Z,99.90
2018-09-25T07:29:34.221Z,99.90
2018-09-25T07:32:11.613Z,99.90
2018-09-25T07:34:49.362Z,99.90
2018-09-25T07:37:26.754Z,99.90
2018-09-25T07:40:04.295Z,99.90
2018-09-25T07:42:41.806Z,99.90
2018-09-25T07:45:19.600Z,99.90
2018-09-25T07:47:57.437Z,99.90
2018-09-25T07:50:35.187Z,99.90
2018-09-25T07:53:13.000Z,99.90
2018-09-25T07:55:50.633Z,99.90
2018-09-25T07:58:28.533Z,99.90
2018-09-25T08:01:06.051Z,99.90
2018-09-25T08:03:45.492Z,99.90
2018-09-25T08:06:23.076Z,99.90
2018-09-25T08:09:32.721Z,99.90
2018-09-25T08:12:09.490Z,99.90
2018-09-25T08:14:46.532Z,99.90
2018-09-25T08:17:24.163Z,99.90
2018-09-25T08:20:01.097Z,99.90
2018-09-25T08:22:38.173Z,99.90
2018-09-25T08:25:15.005Z,99.90
2018-09-25T08:27:52.618Z,99.90
2018-09-25T08:30:29.364Z,99.90
2018-09-25T08:33:07.024Z,99.90
2018-09-25T08:35:43.826Z,99.90
2018-09-25T08:38:20.685Z,99.90
2018-09-25T08:40:57.326Z,99.90
2018-09-25T08:43:34.303Z,99.90
2018-09-25T08:46:11.098Z,99.90
2018-09-25T08:48:48.572Z,99.90
2018-09-25T08:51:25.791Z,99.90
2018-09-25T08:54:02.411Z,99.90
2018-09-25T08:56:40.432Z,99.90
2018-09-25T08:59:17.747Z,99.90
2018-09-25T09:01:55.569Z,99.90
2018-09-25T09:04:32.533Z,99.90
2018-09-25T09:07:10.027Z,99.90
2018-09-25T09:09:47.424Z,99.90
2018-09-25T09:12:24.803Z,99.90
2018-09-25T09:15:04.398Z,99.90
2018-09-25T09:17:42.168Z,99.90
2018-09-25T09:20:18.929Z,99.90
2018-09-25T09:22:55.792Z,99.90
2018-09-25T09:25:32.656Z,99.90
2018-09-25T09:28:09.545Z,99.90
2018-09-25T09:30:47.141Z,99.90
2018-09-25T09:33:23.970Z,99.90
2018-09-25T09:36:00.791Z,99.90
2018-09-25T09:38:37.805Z,99.90
2018-09-25T09:41:47.362Z,99.90
2018-09-25T09:44:24.960Z,99.90
2018-09-25T09:47:02.138Z,99.90
2018-09-25T09:49:39.873Z,99.90
2018-09-25T09:52:17.192Z,99.90
2018-09-25T09:54:54.638Z,99.90
2018-09-25T09:57:31.917Z,99.90
2018-09-25T10:00:10.314Z,99.90
2018-09-25T10:02:48.028Z,99.90
2018-09-25T10:05:25.293Z,99.90
2018-09-25T10:08:03.038Z,99.90
2018-09-25T10:10:40.370Z,99.90
2018-09-25T10:13:17.759Z,99.90
2018-09-25T10:15:55.392Z,99.90
2018-09-25T10:18:32.691Z,99.90
2018-09-25T10:21:10.129Z,99.90
2018-09-25T10:23:47.588Z,99.90
2018-09-25T10:26:25.199Z,99.90
2018-09-25T10:29:02.989Z,99.90
2018-09-25T10:31:40.433Z,99.90
2018-09-25T10:34:19.942Z,99.90
2018-09-25T10:36:57.411Z,99.90
2018-09-25T10:39:36.007Z,99.90
2018-09-25T10:42:13.664Z,99.90
2018-09-25T10:44:51.344Z,99.90
2018-09-25T10:47:30.471Z,99.90
2018-09-25T10:50:07.806Z,99.90
2018-09-25T10:52:46.537Z,99.90
2018-09-25T10:55:23.883Z,99.90
2018-09-25T10:58:01.277Z,99.90
2018-09-25T11:00:38.754Z,99.90
2018-09-25T11:03:16.444Z,99.90
2018-09-25T11:05:53.730Z,99.90
2018-09-25T11:08:33.293Z,99.90
2018-09-25T11:11:10.575Z,99.90
2018-09-25T11:17:09.270Z,99.90
2018-09-25T11:19:46.644Z,99.90
2018-09-25T11:22:23.744Z,99.90
2018-09-25T11:25:01.369Z,99.90
2018-09-25T11:27:38.729Z,99.90
2018-09-25T11:30:16.197Z,99.90
2018-09-25T11:32:53.317Z,99.90
2018-09-25T11:35:30.452Z,99.90
2018-09-25T11:42:01.198Z,99.90
2018-09-25T11:44:39.335Z,99.90
2018-09-25T11:47:16.406Z,99.90
2018-09-25T11:49:53.098Z,99.90
2018-09-25T11:52:29.991Z,99.90
2018-09-25T11:55:07.817Z,99.90
2018-09-25T11:57:44.955Z,99.90
2018-09-25T12:03:42.902Z,99.90
2018-09-25T12:09:44.291Z,99.90
2018-09-25T12:12:24.688Z,99.90
2018-09-25T12:15:01.690Z,99.90
2018-09-25T12:17:38.431Z,99.90
2018-09-25T12:20:15.462Z,99.90
2018-09-25T12:22:52.910Z,99.90
2018-09-25T12:25:29.799Z,99.90
2018-09-25T12:28:07.124Z,99.90
2018-09-25T12:30:43.997Z,99.90
2018-09-25T12:33:21.069Z,99.90
2018-09-25T12:35:58.350Z,99.90
2018-09-25T12:38:35.901Z,99.90
2018-09-25T12:41:12.545Z,99.90
2018-09-25T12:43:50.124Z,99.90
2018-09-25T12:46:27.387Z,99.90
2018-09-25T12:49:04.246Z,99.90
2018-09-25T12:51:41.101Z,99.90
2018-09-25T12:54:18.796Z,99.90
2018-09-25T12:56:56.091Z,99.90
2018-09-25T12:59:33.353Z,99.90
2018-09-25T13:02:11.021Z,99.90
2018-09-25T13:04:48.169Z,99.90
2018-09-25T13:07:24.981Z,99.90
2018-09-25T13:10:03.124Z,99.90
2018-09-25T13:12:40.137Z,99.90
2018-09-25T13:15:18.928Z,99.90
2018-09-25T13:17:56.329Z,99.90
2018-09-25T13:20:33.620Z,99.90
2018-09-25T13:23:10.391Z,99.90
2018-09-25T13:25:50.118Z,99.90
2018-09-25T13:28:27.826Z,99.90
2018-09-25T13:31:04.791Z,99.90
2018-09-25T13:33:46.480Z,99.90
2018-09-25T13:36:25.715Z,99.90
2018-09-25T13:39:03.140Z,99.90
2018-09-25T13:41:40.601Z,99.90
2018-09-25T13:44:17.871Z,99.90
2018-09-25T13:46:54.561Z,99.90
2018-09-25T13:49:32.613Z,99.90
2018-09-25T14:03:59.214Z,99.90
2018-09-25T14:10:13.108Z,99.90
2018-09-25T14:12:51.821Z,99.90
2018-09-25T14:15:30.567Z,99.90
2018-09-25T14:18:07.880Z,99.90
2018-09-25T14:20:45.347Z,99.90
2018-09-25T14:23:42.089Z,99.90
2018-09-25T14:26:38.862Z,99.90
2018-09-25T14:29:35.799Z,99.90
2018-09-25T14:32:34.047Z,99.90
2018-09-25T14:35:28.287Z,99.90
2018-09-25T14:41:57.825Z,99.90
2018-09-25T14:44:41.204Z,99.90
2018-09-25T14:47:24.764Z,99.90
2018-09-25T14:50:40.707Z,99.90
2018-09-25T14:53:28.725Z,99.90
2018-09-25T14:56:25.261Z,99.90
2018-09-25T14:59:22.224Z,99.90
2018-09-25T15:02:13.658Z,99.90
2018-09-25T15:05:06.033Z,99.90
2018-09-25T15:08:02.227Z,99.90
2018-09-25T15:10:43.522Z,99.90
2018-09-25T15:13:41.621Z,99.90
2018-09-25T15:16:35.387Z,99.90
2018-09-25T15:19:33.939Z,99.90
2018-09-25T15:22:29.831Z,99.90
2018-09-25T15:25:24.370Z,99.90
2018-09-25T15:28:18.027Z,99.90
2018-09-25T15:31:16.944Z,99.90
2018-09-25T15:33:54.481Z,99.90
2018-09-25T15:36:31.680Z,99.90
2018-09-25T15:39:08.619Z,99.90
2018-09-25T15:41:45.764Z,99.90
2018-09-25T15:44:22.655Z,99.90
2018-09-25T15:47:00.966Z,99.90
2018-09-25T15:49:37.699Z,99.90
2018-09-25T15:52:14.620Z,99.90
2018-09-25T15:54:51.848Z,99.90
2018-09-25T15:57:28.922Z,99.90
2018-09-25T16:00:06.098Z,99.90
2018-09-25T16:02:45.933Z,99.90
2018-09-25T16:05:22.456Z,99.90
2018-09-25T16:07:59.272Z,99.90
2018-09-25T16:10:53.490Z,99.90
2018-09-25T16:13:33.369Z,99.90
2018-09-25T16:16:10.655Z,99.90
2018-09-25T16:18:49.000Z,99.90
2018-09-25T16:21:27.910Z,99.90
2018-09-25T16:24:05.065Z,99.90
2018-09-25T16:26:41.642Z,99.90
2018-09-25T16:29:18.366Z,99.90
2018-09-25T16:31:56.423Z,99.90
2018-09-25T16:34:33.365Z,99.90
2018-09-25T16:37:10.552Z,99.90
2018-09-25T16:39:48.016Z,99.90
2018-09-25T16:42:25.172Z,99.90
2018-09-25T16:45:02.674Z,99.90
2018-09-25T16:47:39.964Z,99.90
2018-09-25T16:50:19.182Z,99.90
2018-09-25T16:52:56.828Z,99.90
2018-09-25T16:55:34.163Z,99.90
2018-09-25T16:58:10.943Z,99.90
2018-09-25T17:00:49.338Z,99.90
2018-09-25T17:03:28.046Z,99.90
2018-09-25T17:06:06.344Z,99.90
2018-09-25T17:08:43.501Z,99.90
2018-09-25T17:11:20.557Z,99.90
2018-09-25T17:13:59.612Z,99.90
2018-09-25T17:16:36.785Z,99.90
2018-09-25T17:19:13.496Z,99.90
2018-09-25T17:21:50.833Z,99.90
2018-09-25T17:24:28.317Z,99.90
2018-09-25T17:27:06.128Z,99.90
2018-09-25T17:29:45.198Z,99.90
2018-09-25T17:32:39.644Z,99.90
2018-09-25T17:35:33.468Z,99.90
2018-09-25T17:38:11.382Z,99.90
2018-09-25T17:40:48.875Z,99.90
2018-09-25T17:43:35.721Z,99.90
2018-09-25T17:46:14.374Z,99.90
2018-09-25T17:48:53.415Z,99.90
2018-09-25T17:51:31.827Z,99.90
2018-09-25T17:54:09.361Z,99.90
2018-09-25T17:56:46.160Z,99.90
2018-09-25T17:59:24.908Z,99.90
2018-09-25T18:02:01.808Z,99.90
2018-09-25T18:04:40.357Z,99.90
2018-09-25T18:10:39.199Z,99.90
2018-09-25T18:13:16.030Z,99.90
2018-09-25T18:15:55.746Z,99.90
2018-09-25T18:18:32.706Z,99.90
2018-09-25T18:21:10.316Z,99.90
2018-09-25T18:23:48.144Z,99.90
2018-09-25T18:26:25.613Z,99.90
2018-09-25T18:32:35.114Z,99.90
2018-09-25T18:35:12.293Z,99.90
2018-09-25T18:37:50.127Z,99.90
2018-09-25T18:40:27.091Z,99.90
2018-09-25T18:43:05.473Z,99.90
2018-09-25T18:45:42.884Z,99.90
2018-09-25T18:48:20.141Z,99.90
2018-09-25T18:50:57.213Z,99.90
2018-09-25T18:53:34.652Z,98.10
2018-09-25T18:56:11.684Z,95.20
2018-09-25T18:58:49.798Z,97.90
2018-09-25T19:01:27.809Z,98.40
2018-09-25T19:04:05.866Z,99.40
2018-09-25T19:06:43.747Z,98.40
2018-09-25T19:09:21.308Z,98.50
2018-09-25T19:11:58.338Z,94.20
2018-09-25T19:14:36.060Z,92.90
2018-09-25T19:17:13.406Z,96.00
2018-09-25T19:19:51.193Z,93.80
2018-09-25T19:22:28.737Z,93.90
2018-09-25T19:25:07.012Z,93.90
2018-09-25T19:27:44.477Z,93.50
2018-09-25T19:30:22.234Z,93.60
2018-09-25T19:32:59.712Z,95.80
2018-09-25T19:35:37.323Z,93.20
2018-09-25T19:38:14.448Z,91.70
2018-09-25T19:40:52.366Z,92.60
2018-09-25T19:43:29.675Z,93.70
2018-09-25T19:46:06.981Z,97.60
2018-09-25T19:48:44.372Z,95.10
2018-09-25T19:51:22.871Z,93.90
2018-09-25T19:54:00.715Z,94.30
2018-09-25T19:56:38.379Z,93.10
2018-09-25T19:59:16.376Z,94.10
2018-09-25T20:01:56.268Z,96.70
2018-09-25T20:04:34.004Z,98.60
2018-09-25T20:07:17.682Z,98.80
2018-09-25T20:09:54.959Z,99.80
2018-09-25T20:12:32.415Z,99.90
2018-09-25T20:15:09.493Z,99.90
2018-09-25T20:17:47.078Z,99.90
2018-09-25T20:20:24.470Z,99.90
2018-09-25T20:23:02.062Z,99.90
2018-09-25T20:25:39.513Z,99.90
2018-09-25T20:28:17.021Z,99.90
2018-09-25T20:30:55.248Z,99.80
2018-09-25T20:33:34.308Z,99.90
2018-09-25T20:36:39.601Z,99.20
2018-09-25T20:39:17.620Z,99.90
2018-09-25T20:41:55.133Z,99.90
2018-09-25T20:44:32.946Z,97.70
2018-09-25T20:47:10.552Z,96.30
2018-09-25T20:49:48.178Z,94.10
2018-09-25T20:52:25.938Z,94.50
2018-09-25T20:55:03.577Z,95.30
2018-09-25T20:57:40.987Z,93.70
2018-09-25T21:00:18.614Z,94.10
2018-09-25T21:02:56.088Z,94.50
2018-09-25T21:05:33.535Z,93.80
2018-09-25T21:08:10.857Z,94.00
2018-09-25T21:10:48.574Z,95.40
2018-09-25T21:13:26.951Z,95.40
2018-09-25T21:16:04.376Z,96.10
2018-09-25T21:18:41.774Z,95.80
2018-09-25T21:21:20.162Z,96.60
2018-09-25T21:23:57.875Z,96.30
2018-09-25T21:26:35.077Z,96.90
2018-09-25T21:29:12.580Z,97.70
2018-09-25T21:31:50.027Z,96.40
2018-09-25T21:34:31.416Z,96.70
2018-09-25T21:37:08.592Z,97.80
2018-09-25T21:39:46.094Z,98.40
2018-09-25T21:42:23.517Z,98.30
2018-09-25T21:45:00.927Z,97.90
2018-09-25T21:47:38.346Z,98.50
2018-09-25T21:50:15.558Z,98.70
2018-09-25T21:52:53.295Z,99.10
2018-09-25T21:55:30.387Z,99.80
2018-09-25T21:58:09.374Z,99.40
2018-09-25T22:00:47.141Z,99.40
2018-09-25T22:03:25.873Z,98.40
2018-09-25T22:06:03.162Z,98.90
2018-09-25T22:08:40.624Z,99.20
2018-09-25T22:11:18.329Z,98.70
2018-09-25T22:13:56.092Z,98.00
2018-09-25T22:16:33.584Z,96.80
2018-09-25T22:19:10.963Z,96.90
2018-09-25T22:21:48.472Z,95.80
2018-09-25T22:24:26.319Z,93.30
2018-09-25T22:27:03.595Z,92.40
2018-09-25T22:29:41.141Z,92.00
2018-09-25T22:32:18.381Z,91.50
2018-09-25T22:34:57.048Z,90.90
2018-09-25T22:37:34.462Z,90.70
2018-09-25T22:40:11.841Z,90.30
2018-09-25T22:42:49.107Z,90.70
2018-09-25T22:45:26.243Z,90.10
2018-09-25T22:48:04.784Z,89.00
2018-09-25T22:50:42.154Z,88.70
2018-09-25T22:53:19.607Z,89.30
2018-09-25T22:59:29.382Z,89.70
2018-09-25T23:02:07.977Z,90.70
2018-09-25T23:04:44.664Z,91.40
2018-09-25T23:07:21.340Z,91.40
2018-09-25T23:09:58.168Z,90.20
2018-09-25T23:15:59.052Z,88.40
2018-09-25T23:18:39.363Z,90.00
2018-09-25T23:21:16.551Z,90.80
2018-09-25T23:23:53.289Z,91.40
2018-09-25T23:26:30.966Z,92.00
2018-09-25T23:29:07.620Z,91.60
2018-09-25T23:31:44.420Z,92.50
2018-09-25T23:34:21.298Z,93.10
2018-09-25T23:36:58.286Z,93.80
2018-09-25T23:39:36.207Z,95.00
2018-09-25T23:42:43.649Z,96.40
2018-09-25T23:49:06.592Z,99.70
2018-09-25T23:51:44.296Z,99.90
2018-09-25T23:54:37.101Z,99.90
2018-09-25T23:57:19.593Z,99.90
2018-09-25T23:59:57.131Z,99.90
